createdAt,value
2022-07-29T00:01:09.207Z,15.2
2022-07-29T00:03:13.426Z,15.1
2022-07-29T00:05:17.459Z,15.1
2022-07-29T00:07:24.652Z,15
2022-07-29T00:09:28.703Z,15
2022-07-29T00:11:32.817Z,15
2022-07-29T00:13:36.955Z,15
2022-07-29T00:15:41.062Z,15
2022-07-29T00:17:45.186Z,15
2022-07-29T00:19:49.293Z,15
2022-07-29T00:21:56.425Z,14.9
2022-07-29T00:24:00.534Z,14.9
2022-07-29T00:26:04.671Z,14.9
2022-07-29T00:27:08.222Z,14.9
2022-07-29T00:31:16.525Z,14.9
2022-07-29T00:33:20.576Z,14.9
2022-07-29T00:35:27.641Z,14.9
2022-07-29T00:37:31.739Z,14.9
2022-07-29T00:43:44.064Z,14.8
2022-07-29T00:45:48.175Z,14.8
2022-07-29T00:47:52.285Z,14.8
2022-07-29T00:56:11.767Z,14.8
2022-07-29T01:02:24.270Z,14.7
2022-07-29T01:04:34.599Z,14.7
2022-07-29T01:06:36.948Z,14.7
2022-07-29T01:08:41.056Z,14.7
2022-07-29T01:14:53.389Z,14.6
2022-07-29T01:16:57.498Z,14.6
2022-07-29T01:19:04.627Z,14.6
2022-07-29T01:21:08.741Z,14.6
2022-07-29T01:23:12.865Z,14.6
2022-07-29T01:25:31.056Z,14.6
2022-07-29T01:29:40.571Z,14.5
2022-07-29T01:33:50.511Z,14.5
2022-07-29T01:35:54.629Z,14.5
2022-07-29T01:37:58.750Z,14.5
2022-07-29T01:40:02.879Z,14.5
2022-07-29T01:44:11.101Z,14.4
2022-07-29T01:48:22.316Z,14.4
2022-07-29T01:50:26.441Z,14.4
2022-07-29T01:52:30.530Z,14.4
2022-07-29T01:54:34.658Z,14.4
2022-07-29T01:56:39.110Z,14.4
2022-07-29T01:58:42.888Z,14.4
2022-07-29T02:07:02.377Z,14.4
2022-07-29T02:09:06.452Z,14.4
2022-07-29T02:13:14.675Z,14.4
2022-07-29T02:15:21.763Z,14.5
2022-07-29T02:17:25.898Z,14.5
2022-07-29T02:19:29.990Z,14.4
2022-07-29T02:20:33.555Z,14.5
2022-07-29T02:22:37.656Z,14.4
2022-07-29T02:26:45.902Z,14.5
2022-07-29T02:28:52.995Z,14.5
2022-07-29T02:33:01.200Z,14.5
2022-07-29T02:35:05.324Z,14.6
2022-07-29T02:37:09.420Z,14.6
2022-07-29T02:39:13.545Z,14.6
2022-07-29T02:41:17.634Z,14.6
2022-07-29T02:43:24.754Z,14.7
2022-07-29T02:45:28.865Z,14.7
2022-07-29T02:47:41.399Z,14.7
2022-07-29T02:49:37.099Z,14.7
2022-07-29T02:51:44.595Z,14.7
2022-07-29T02:53:45.309Z,14.6
2022-07-29T02:55:49.428Z,14.7
2022-07-29T02:57:56.563Z,14.7
2022-07-29T03:02:04.875Z,14.7
2022-07-29T03:04:08.915Z,14.8
2022-07-29T03:06:31.071Z,14.8
2022-07-29T03:08:17.131Z,14.8
2022-07-29T03:12:28.404Z,14.8
2022-07-29T03:14:32.532Z,14.8
2022-07-29T03:16:39.393Z,14.8
2022-07-29T03:17:40.215Z,14.7
2022-07-29T03:19:44.353Z,14.7
2022-07-29T03:21:48.408Z,14.7
2022-07-29T03:23:52.610Z,14.6
2022-07-29T03:25:59.643Z,14.6
2022-07-29T03:28:03.775Z,14.6
2022-07-29T03:30:08.255Z,14.6
2022-07-29T03:32:12.004Z,14.7
2022-07-29T03:34:16.485Z,14.7
2022-07-29T03:36:20.246Z,14.7
2022-07-29T03:38:24.347Z,14.7
2022-07-29T03:42:35.576Z,14.7
2022-07-29T03:44:39.690Z,14.7
2022-07-29T03:46:43.851Z,14.7
2022-07-29T03:50:52.024Z,14.7
2022-07-29T03:52:56.152Z,14.7
2022-07-29T03:55:03.276Z,14.7
2022-07-29T03:57:07.369Z,14.7
2022-07-29T03:59:11.509Z,14.7
2022-07-29T04:01:15.657Z,14.6
2022-07-29T04:03:19.832Z,14.6
2022-07-29T04:05:23.864Z,14.5
2022-07-29T04:07:27.936Z,14.5
2022-07-29T04:09:35.091Z,14.4
2022-07-29T04:12:01.795Z,14.4
2022-07-29T04:13:43.285Z,14.3
2022-07-29T04:18:55.092Z,14.3
2022-07-29T04:23:06.294Z,14.2
2022-07-29T04:25:10.491Z,14.1
2022-07-29T04:27:14.501Z,14.1
2022-07-29T04:29:18.609Z,14.1
2022-07-29T04:31:25.710Z,14
2022-07-29T04:33:26.827Z,14.1
2022-07-29T04:35:30.927Z,14.1
2022-07-29T04:37:38.040Z,14.1
2022-07-29T04:39:42.234Z,14.1
2022-07-29T04:41:46.245Z,14
2022-07-29T04:43:50.330Z,13.9
2022-07-29T04:45:54.462Z,13.8
2022-07-29T04:47:58.568Z,13.8
2022-07-29T04:50:02.636Z,13.8
2022-07-29T04:52:09.765Z,13.7
2022-07-29T04:54:14.226Z,13.8
2022-07-29T04:56:17.982Z,13.7
2022-07-29T04:58:22.048Z,13.7
2022-07-29T05:00:31.025Z,13.7
2022-07-29T05:04:34.328Z,13.7
2022-07-29T05:06:41.423Z,13.7
2022-07-29T05:13:17.397Z,13.7
2022-07-29T05:15:21.498Z,13.7
2022-07-29T05:17:25.574Z,13.7
2022-07-29T05:19:32.720Z,13.8
2022-07-29T05:21:36.781Z,13.8
2022-07-29T05:25:45.081Z,13.7
2022-07-29T05:27:49.048Z,13.8
2022-07-29T05:29:53.136Z,13.8
2022-07-29T05:31:57.230Z,13.8
2022-07-29T05:34:04.333Z,13.8
2022-07-29T05:36:08.611Z,13.8
2022-07-29T05:38:12.498Z,13.7
2022-07-29T05:40:16.601Z,13.8
2022-07-29T05:42:20.677Z,13.8
2022-07-29T05:44:25.424Z,13.9
2022-07-29T05:46:28.890Z,13.9
2022-07-29T05:48:35.957Z,13.9
2022-07-29T05:52:44.144Z,14
2022-07-29T05:54:48.238Z,14.2
2022-07-29T05:56:52.307Z,14.2
2022-07-29T06:03:07.605Z,14.6
2022-07-29T06:05:15.595Z,14.6
2022-07-29T06:07:15.787Z,14.6
2022-07-29T06:08:19.357Z,14.6
2022-07-29T06:10:26.243Z,14.6
2022-07-29T06:12:27.559Z,14.6
2022-07-29T06:14:31.643Z,14.7
2022-07-29T06:16:38.927Z,14.7
2022-07-29T06:18:42.873Z,14.7
2022-07-29T06:20:47.057Z,14.7
2022-07-29T06:22:51.126Z,14.8
2022-07-29T06:24:55.162Z,14.8
2022-07-29T06:26:59.277Z,14.8
2022-07-29T06:29:03.368Z,14.9
2022-07-29T06:31:10.672Z,14.9
2022-07-29T06:33:14.583Z,14.9
2022-07-29T06:35:41.822Z,15
2022-07-29T06:37:22.779Z,15
2022-07-29T06:39:26.911Z,15
2022-07-29T06:43:35.266Z,15.1
2022-07-29T06:45:42.612Z,15.1
2022-07-29T06:51:54.559Z,15.2
2022-07-29T06:56:02.776Z,15.4
2022-07-29T06:58:06.853Z,15.3
2022-07-29T07:00:15.859Z,15.2
2022-07-29T07:02:19.701Z,15.2
2022-07-29T07:04:23.749Z,15.1
2022-07-29T07:05:27.297Z,15.2
2022-07-29T07:07:31.409Z,15.3
2022-07-29T07:09:40.680Z,15.4
2022-07-29T07:11:39.639Z,15.5
2022-07-29T07:13:46.767Z,15.6
2022-07-29T07:15:50.895Z,15.7
2022-07-29T07:17:54.979Z,15.7
2022-07-29T07:19:59.089Z,15.7
2022-07-29T07:22:03.201Z,15.7
2022-07-29T07:24:07.327Z,15.7
2022-07-29T07:26:11.439Z,15.7
2022-07-29T07:28:18.614Z,15.8
2022-07-29T07:30:22.721Z,15.9
2022-07-29T07:38:39.180Z,16.9
2022-07-29T07:40:43.281Z,17.1
2022-07-29T07:42:50.441Z,16.9
2022-07-29T07:45:12.491Z,16.8
2022-07-29T07:46:58.708Z,16.8
2022-07-29T07:49:02.893Z,16.8
2022-07-29T07:51:06.934Z,17
2022-07-29T07:53:11.115Z,17
2022-07-29T07:55:15.242Z,16.8
2022-07-29T07:57:22.378Z,16.7
2022-07-29T07:59:26.489Z,16.8
2022-07-29T08:01:30.703Z,17.1
2022-07-29T08:06:42.465Z,18.2
2022-07-29T08:10:53.736Z,17.9
2022-07-29T08:15:01.968Z,18
2022-07-29T08:31:38.034Z,17.4
2022-07-29T08:33:42.139Z,17.5
2022-07-29T08:35:46.248Z,17.7
2022-07-29T08:37:50.436Z,17.8
2022-07-29T08:39:57.544Z,17.8
2022-07-29T08:42:02.266Z,17.8
2022-07-29T08:44:05.820Z,17.8
2022-07-29T08:46:09.940Z,17.6
2022-07-29T08:48:14.047Z,17.5
2022-07-29T08:50:18.190Z,17.7
2022-07-29T08:52:22.320Z,17.8
2022-07-29T08:54:29.438Z,17.7
2022-07-29T08:56:33.581Z,17.8
2022-07-29T09:01:02.075Z,18.1
2022-07-29T09:07:17.415Z,18.4
2022-07-29T09:09:21.539Z,18.4
2022-07-29T09:11:25.663Z,18.5
2022-07-29T09:13:29.804Z,18.7
2022-07-29T09:15:33.924Z,19
2022-07-29T09:17:38.092Z,19.1
2022-07-29T09:19:45.384Z,18.8
2022-07-29T09:21:49.330Z,18.6
2022-07-29T09:23:53.455Z,18.7
2022-07-29T09:25:57.601Z,18.7
2022-07-29T09:28:01.729Z,18.8
2022-07-29T09:30:05.875Z,18.7
2022-07-29T09:38:25.403Z,18.9
2022-07-29T09:40:29.534Z,18.9
2022-07-29T09:42:33.653Z,18.9
2022-07-29T09:44:37.793Z,18.9
2022-07-29T09:46:42.017Z,18.9
2022-07-29T09:48:46.098Z,18.7
2022-07-29T09:50:53.213Z,18.6
2022-07-29T09:52:57.438Z,18.7
2022-07-29T09:55:01.480Z,19
2022-07-29T09:58:09.173Z,19.1
2022-07-29T10:04:24.615Z,19.3
2022-07-29T10:06:28.711Z,19.1
2022-07-29T10:10:36.960Z,19.2
2022-07-29T10:12:41.088Z,19.5
2022-07-29T10:14:45.203Z,19.5
2022-07-29T10:16:49.510Z,19.6
2022-07-29T10:18:56.524Z,19.3
2022-07-29T10:23:04.760Z,19.4
2022-07-29T10:25:08.867Z,19.6
2022-07-29T10:27:13.032Z,19.6
2022-07-29T10:29:17.134Z,19.7
2022-07-29T10:31:21.314Z,19.6
2022-07-29T10:33:28.424Z,19.6
2022-07-29T10:35:32.536Z,19.7
2022-07-29T10:37:36.813Z,19.7
2022-07-29T10:39:44.319Z,19.7
2022-07-29T10:41:44.904Z,19.9
2022-07-29T10:43:51.194Z,19.8
2022-07-29T10:45:53.166Z,19.8
2022-07-29T10:53:12.165Z,20.4
2022-07-29T10:55:16.291Z,20.4
2022-07-29T10:57:20.755Z,20.6
2022-07-29T10:59:24.555Z,21.1
2022-07-29T11:05:40.957Z,21.4
2022-07-29T11:09:48.230Z,21.1
2022-07-29T11:11:52.310Z,20.8
2022-07-29T11:18:07.743Z,21
2022-07-29T11:28:28.354Z,20.9
2022-07-29T11:36:48.535Z,21.1
2022-07-29T11:43:00.864Z,20.5
2022-07-29T11:45:40.250Z,21.2
2022-07-29T11:47:12.143Z,21.2
2022-07-29T11:54:28.078Z,21.7
2022-07-29T11:56:32.217Z,21.9
2022-07-29T11:58:39.358Z,21.9
2022-07-29T12:00:43.508Z,22.4
2022-07-29T12:02:48.717Z,22.3
2022-07-29T12:08:59.971Z,23.2
2022-07-29T12:13:11.214Z,23.1
2022-07-29T12:15:15.345Z,22.7
2022-07-29T12:17:19.457Z,23
2022-07-29T12:19:23.577Z,23.3
2022-07-29T12:21:28.712Z,23.8
2022-07-29T12:25:35.929Z,23.6
2022-07-29T12:27:43.041Z,23.4
2022-07-29T12:29:48.897Z,23.3
2022-07-29T12:31:51.342Z,23.3
2022-07-29T12:33:55.358Z,23.7
2022-07-29T12:36:07.675Z,23.8
2022-07-29T12:40:07.682Z,24.4
2022-07-29T12:42:15.027Z,23.5
2022-07-29T12:44:18.926Z,23.5
2022-07-29T12:46:23.062Z,23.5
2022-07-29T12:48:47.672Z,24.1
2022-07-29T12:57:08.716Z,23.8
2022-07-29T13:01:17.675Z,24
2022-07-29T13:03:21.014Z,23.7
2022-07-29T13:05:25.081Z,23.5
2022-07-29T13:07:54.595Z,23.6
2022-07-29T13:09:36.485Z,23.9
2022-07-29T13:11:43.065Z,24
2022-07-29T13:13:44.540Z,24.3
2022-07-29T13:15:48.673Z,24.7
2022-07-29T13:17:52.759Z,24.7
2022-07-29T13:19:56.844Z,24.9
2022-07-29T13:22:01.309Z,24.7
2022-07-29T13:24:08.091Z,24.7
2022-07-29T13:26:12.200Z,25
2022-07-29T13:28:16.296Z,25.2
2022-07-29T13:30:20.414Z,24.9
2022-07-29T13:32:28.606Z,24.7
2022-07-29T13:34:28.610Z,24.5
2022-07-29T13:36:32.698Z,24.4
2022-07-29T13:38:39.837Z,24.5
2022-07-29T13:40:43.943Z,24.7
2022-07-29T13:42:48.004Z,24.6
2022-07-29T13:43:51.582Z,24.7
2022-07-29T13:45:55.741Z,24.7
2022-07-29T13:47:59.767Z,24.9
2022-07-29T13:50:03.889Z,25
2022-07-29T13:52:11.151Z,25.1
2022-07-29T13:56:19.161Z,25.1
2022-07-29T13:58:23.271Z,25.5
2022-07-29T14:02:31.424Z,25.5
2022-07-29T14:04:35.577Z,25.2
2022-07-29T14:10:50.801Z,25
2022-07-29T14:14:58.976Z,24.8
2022-07-29T14:23:18.334Z,25.4
2022-07-29T14:25:22.397Z,25.9
2022-07-29T14:29:37.750Z,26.5
2022-07-29T14:33:38.672Z,26.4
2022-07-29T14:35:45.805Z,25.9
2022-07-29T14:37:49.853Z,25.9
2022-07-29T14:39:53.923Z,25.9
2022-07-29T14:40:57.476Z,26
2022-07-29T14:43:01.521Z,25.9
2022-07-29T14:45:05.553Z,26.2
2022-07-29T14:47:09.629Z,26.4
2022-07-29T14:49:16.767Z,26.4
2022-07-29T15:01:40.969Z,26.9
2022-07-29T15:03:47.905Z,26.7
2022-07-29T15:05:51.896Z,26.8
2022-07-29T15:07:55.897Z,26.7
2022-07-29T15:09:59.886Z,26.8
2022-07-29T15:12:04.091Z,27.2
2022-07-29T15:14:07.878Z,27.5
2022-07-29T15:16:11.891Z,27.5
2022-07-29T15:18:25.762Z,26.9
2022-07-29T15:20:22.853Z,26.9
2022-07-29T15:22:26.809Z,26.5
2022-07-29T15:24:30.791Z,26.7
2022-07-29T15:26:34.733Z,26.6
2022-07-29T15:28:38.694Z,27.1
2022-07-29T15:30:42.652Z,27.3
2022-07-29T15:32:49.664Z,27.5
2022-07-29T15:34:53.593Z,27.6
2022-07-29T15:36:57.574Z,28
2022-07-29T15:40:05.009Z,28.4
2022-07-29T15:42:08.951Z,28.9
2022-07-29T15:44:12.875Z,29.3
2022-07-29T15:46:19.948Z,29
2022-07-29T15:48:23.809Z,28.9
2022-07-29T15:50:27.723Z,29
2022-07-29T15:52:31.674Z,29.2
2022-07-29T15:54:35.555Z,29.3
2022-07-29T15:56:39.483Z,29.9
2022-07-29T15:58:43.397Z,30.3
2022-07-29T16:00:50.479Z,30.5
2022-07-29T16:02:54.279Z,30.8
2022-07-29T16:04:58.193Z,31.5
2022-07-29T16:07:02.144Z,31.1
2022-07-29T16:09:06.023Z,31.8
2022-07-29T16:15:20.825Z,31.4
2022-07-29T16:17:24.685Z,31.3
2022-07-29T16:19:28.580Z,31.2
2022-07-29T16:25:59.304Z,30.5
2022-07-29T16:27:44.202Z,31.1
2022-07-29T16:29:51.188Z,31.6
2022-07-29T16:31:55.171Z,31.9
2022-07-29T16:33:59.028Z,32
2022-07-29T16:36:23.475Z,30.5
2022-07-29T16:38:27.332Z,29.7
2022-07-29T16:40:31.232Z,27.5
2022-07-29T16:42:46.588Z,25.9
2022-07-29T16:44:42.164Z,25.6
2022-07-29T16:46:46.296Z,25.4
2022-07-29T16:48:50.159Z,25.3
2022-07-29T16:50:54.057Z,25.1
2022-07-29T16:52:58.063Z,24.8
2022-07-29T16:55:02.067Z,24.7
2022-07-29T16:57:09.121Z,24.5
2022-07-29T16:59:13.207Z,24.5
2022-07-29T17:01:17.318Z,24.4
2022-07-29T17:15:48.707Z,24.2
2022-07-29T17:17:56.501Z,24.1
2022-07-29T17:19:56.817Z,24.1
2022-07-29T17:22:10.457Z,24.2
2022-07-29T17:24:05.012Z,24.2
2022-07-29T17:26:12.131Z,24.2
2022-07-29T17:28:16.217Z,24.1
2022-07-29T17:30:20.349Z,24.2
2022-07-29T17:31:23.991Z,24.2
2022-07-29T17:33:27.988Z,24.3
2022-07-29T17:39:43.349Z,24.1
2022-07-29T17:41:47.447Z,24.1
2022-07-29T17:43:51.631Z,24.1
2022-07-29T17:45:59.424Z,24.1
2022-07-29T17:50:03.872Z,24
2022-07-29T17:52:07.982Z,24
2022-07-29T17:54:15.142Z,24.2
2022-07-29T17:56:19.230Z,24.4
2022-07-29T17:58:23.430Z,24.3
2022-07-29T18:00:27.468Z,24.1
2022-07-29T18:02:31.686Z,24
2022-07-29T18:04:35.633Z,23.9
2022-07-29T18:06:39.763Z,23.9
2022-07-29T18:08:46.882Z,23.8
2022-07-29T18:10:51.015Z,23.8
2022-07-29T18:12:55.103Z,23.8
2022-07-29T18:14:59.214Z,23.9
2022-07-29T18:17:03.345Z,23.6
2022-07-29T18:19:07.472Z,23.5
2022-07-29T18:21:11.562Z,23.4
2022-07-29T18:23:18.696Z,23.4
2022-07-29T18:25:22.799Z,23.3
2022-07-29T18:27:26.927Z,23.2
2022-07-29T18:28:30.493Z,23
2022-07-29T18:30:34.606Z,22.9
2022-07-29T18:32:38.712Z,22.9
2022-07-29T18:34:42.855Z,22.8
2022-07-29T18:43:02.331Z,22.7
2022-07-29T18:47:11.372Z,22.7
2022-07-29T18:49:14.771Z,22.6
2022-07-29T18:51:21.851Z,22.5
2022-07-29T18:53:25.972Z,22.5
2022-07-29T18:55:31.687Z,22.4
2022-07-29T18:57:54.393Z,22.4
2022-07-29T18:59:39.895Z,22.3
2022-07-29T19:01:44.110Z,22.3
2022-07-29T19:03:48.145Z,22.2
2022-07-29T19:05:55.332Z,22.1
2022-07-29T19:07:59.406Z,22.1
2022-07-29T19:10:03.576Z,22
2022-07-29T19:12:07.669Z,22
2022-07-29T19:14:11.797Z,21.9
2022-07-29T19:18:20.093Z,21.7
2022-07-29T19:20:27.233Z,21.7
2022-07-29T19:22:31.356Z,21.6
2022-07-29T19:24:35.564Z,21.6
2022-07-29T19:25:53.256Z,21.5
2022-07-29T19:27:43.228Z,21.5
2022-07-29T19:29:47.338Z,21.5
2022-07-29T19:31:51.480Z,21.4
2022-07-29T19:33:58.654Z,21.4
2022-07-29T19:36:02.754Z,21.4
2022-07-29T19:38:07.573Z,21.3
2022-07-29T19:40:11.722Z,21.2
2022-07-29T19:42:15.845Z,21.1
2022-07-29T19:44:20.008Z,21
2022-07-29T19:48:31.283Z,20.9
2022-07-29T19:50:35.429Z,20.8
2022-07-29T19:52:39.565Z,20.8
2022-07-29T19:54:43.698Z,20.7
2022-07-29T19:56:48.049Z,20.6
2022-07-29T19:58:52.025Z,20.5
2022-07-29T20:00:56.108Z,20.5
2022-07-29T20:03:03.571Z,20.4
2022-07-29T20:05:07.416Z,20.3
2022-07-29T20:07:11.655Z,20.3
2022-07-29T20:09:20.358Z,20.2
2022-07-29T20:11:19.804Z,20.1
2022-07-29T20:13:23.964Z,20
2022-07-29T20:15:28.098Z,20
2022-07-29T20:17:43.355Z,19.9
2022-07-29T20:19:39.421Z,19.8
2022-07-29T20:21:43.554Z,19.8
2022-07-29T20:24:01.873Z,19.7
2022-07-29T20:26:09.347Z,19.6
2022-07-29T20:28:10.098Z,19.6
2022-07-29T20:30:17.775Z,19.6
2022-07-29T20:32:21.395Z,19.5
2022-07-29T20:34:25.553Z,19.5
2022-07-29T20:36:29.686Z,19.4
2022-07-29T20:38:33.833Z,19.3
2022-07-29T20:40:37.967Z,19.3
2022-07-29T20:42:42.101Z,19.3
2022-07-29T20:44:49.252Z,19.2
2022-07-29T20:46:53.411Z,19.2
2022-07-29T20:48:57.640Z,19.1
2022-07-29T20:51:01.675Z,19.1
2022-07-29T20:53:05.823Z,19
2022-07-29T20:55:09.946Z,19
2022-07-29T20:57:14.093Z,18.9
2022-07-29T20:59:21.265Z,18.9
2022-07-29T21:01:25.458Z,18.9
2022-07-29T21:11:46.088Z,18.8
2022-07-29T21:15:57.455Z,18.7
2022-07-29T21:18:01.536Z,18.7
2022-07-29T21:19:05.123Z,18.7
2022-07-29T21:23:13.377Z,18.7
2022-07-29T21:25:17.557Z,18.6
2022-07-29T21:27:25.023Z,18.6
2022-07-29T21:36:06.544Z,18.5
2022-07-29T21:37:45.368Z,18.5
2022-07-29T21:41:57.209Z,18.4
2022-07-29T21:46:05.579Z,18.4
2022-07-29T21:48:09.636Z,18.4
2022-07-29T21:52:18.197Z,18.3
2022-07-29T21:54:22.079Z,18.3
2022-07-29T21:58:33.350Z,18.2
2022-07-29T22:00:37.533Z,18.2
2022-07-29T22:02:41.630Z,18.2
2022-07-29T22:04:45.861Z,18.1
2022-07-29T22:11:01.195Z,18
2022-07-29T22:13:05.337Z,18
2022-07-29T22:15:09.467Z,18
2022-07-29T22:16:13.057Z,17.9
2022-07-29T22:18:21.056Z,17.9
2022-07-29T22:20:21.316Z,17.9
2022-07-29T22:22:25.453Z,17.9
2022-07-29T22:24:32.597Z,17.9
2022-07-29T22:26:36.738Z,17.8
2022-07-29T22:28:40.893Z,17.8
2022-07-29T22:30:45.111Z,17.8
2022-07-29T22:32:49.130Z,17.8
2022-07-29T22:34:53.262Z,17.8
2022-07-29T22:36:57.733Z,17.8
2022-07-29T22:39:04.567Z,17.7
2022-07-29T22:41:08.693Z,17.7
2022-07-29T22:43:12.834Z,17.7
2022-07-29T22:45:16.976Z,17.7
2022-07-29T22:47:46.361Z,17.6
2022-07-29T22:49:25.319Z,17.6
2022-07-29T22:51:29.363Z,17.5
2022-07-29T22:53:36.525Z,17.5
2022-07-29T22:55:40.643Z,17.5
2022-07-29T22:57:44.789Z,17.5
2022-07-29T22:59:48.906Z,17.4
2022-07-29T23:01:53.066Z,17.4
2022-07-29T23:03:57.263Z,17.4
2022-07-29T23:06:01.299Z,17.4
2022-07-29T23:08:08.438Z,17.3
2022-07-29T23:10:12.585Z,17.3
2022-07-29T23:12:16.703Z,17.3
2022-07-29T23:13:20.274Z,17.3
2022-07-29T23:15:24.631Z,17.3
2022-07-29T23:17:28.516Z,17.2
2022-07-29T23:19:32.660Z,17.2
2022-07-29T23:21:39.797Z,17.2
2022-07-29T23:23:43.949Z,17.2
2022-07-29T23:25:48.049Z,17.2
2022-07-29T23:27:52.174Z,17.1
2022-07-29T23:29:56.322Z,17.1
2022-07-29T23:32:00.477Z,17.1
2022-07-29T23:34:04.561Z,17.1
2022-07-29T23:38:15.845Z,17.1
2022-07-29T23:48:36.469Z,16.9
2022-07-29T23:52:47.734Z,16.9
